Time;durP1;ratioP1;P1;durP2;ratioP2;P2;SDS_P1;SDS_P2;PMS_P1;PMS_P2;Temp;Humidity;BMP_temperature;BMP_pressure;BME280_temperature;BME280_humidity;BME280_pressure;Samples;Min_cycle;Max_cycle;Signal;HPM_P1;HPM_P2
2021/11/02 00:01:15;;;;;;;19.90;13.90;;;;;;;11.32;61.82;97392.98;236287;1197;22434;-75
2021/11/02 00:06:17;;;;;;;20.70;12.20;;;;;;;11.24;61.91;97390.39;236296;1197;24107;-74
2021/11/02 00:11:22;;;;;;;16.70;11.30;;;;;;;11.17;62.06;97390.19;236227;1197;24059;-74
2021/11/02 00:16:33;;;;;;;20.80;13.50;;;;;;;11.16;62.27;97387.26;236100;1197;25108;-76
2021/11/02 00:21:43;;;;;;;20.40;13.90;;;;;;;11.17;62.49;97388.58;236129;1190;24053;-72
2021/11/02 00:26:48;;;;;;;24.00;15.30;;;;;;;11.18;62.57;97385.10;236068;1197;22418;-75
2021/11/02 00:31:51;;;;;;;24.30;15.90;;;;;;;11.16;62.60;97376.09;236046;1198;24003;-74
2021/11/02 00:37:07;;;;;;;25.80;16.10;;;;;;;11.16;62.51;97364.80;235924;1197;24171;-75
2021/11/02 00:43:13;;;;;;;25.80;16.80;;;;;;;11.14;62.48;97361.67;235961;1190;22422;-74
2021/11/02 00:48:00;;;;;;;28.40;17.30;;;;;;;11.07;62.52;97357.83;236037;1197;25241;-75
2021/11/02 00:53:05;;;;;;;32.90;17.90;;;;;;;11.01;62.65;97347.27;236001;1197;22405;-74
2021/11/02 00:58:08;;;;;;;28.50;18.50;;;;;;;10.99;62.92;97345.83;236107;1197;22495;-75
2021/11/02 01:03:11;;;;;;;32.30;19.30;;;;;;;10.98;63.05;97343.93;236170;1190;25269;-75
2021/11/02 01:08:13;;;;;;;32.50;18.90;;;;;;;10.97;63.10;97344.28;235999;1190;24187;-75
2021/11/02 01:13:17;;;;;;;30.90;19.60;;;;;;;10.90;63.22;97339.06;235982;1197;26172;-75
2021/11/02 01:18:21;;;;;;;31.90;19.40;;;;;;;10.81;63.38;97333.12;235888;1198;22439;-73
2021/11/02 01:23:24;;;;;;;32.40;19.30;;;;;;;10.75;63.59;97339.41;236256;1197;24527;-73
2021/11/02 01:28:27;;;;;;;27.40;17.40;;;;;;;10.74;63.80;97337.16;236061;1190;22509;-75
2021/11/02 01:33:32;;;;;;;29.20;18.80;;;;;;;10.77;64.07;97328.56;236250;1193;22445;-75
2021/11/02 01:38:35;;;;;;;29.60;17.90;;;;;;;10.82;64.12;97325.03;236123;1197;25190;-75
2021/11/02 01:43:43;;;;;;;25.90;16.30;;;;;;;10.85;64.08;97319.13;236146;1190;24069;-73
2021/11/02 01:48:57;;;;;;;25.20;16.80;;;;;;;10.85;64.17;97314.59;235869;1193;24122;-75
2021/11/02 01:54:22;;;;;;;19.20;12.30;;;;;;;10.86;64.18;97306.83;235946;1190;22442;-74
2021/11/02 01:59:29;;;;;;;15.60;9.50;;;;;;;10.87;63.87;97302.14;236485;1174;24260;-75
2021/11/02 02:04:56;;;;;;;12.40;8.20;;;;;;;10.93;64.03;97296.02;236072;1197;24046;-74
2021/11/02 02:10:52;;;;;;;13.30;9.30;;;;;;;11.03;63.79;97296.65;236139;1197;25296;-73
2021/11/02 02:16:02;;;;;;;12.80;9.40;;;;;;;11.11;64.10;97289.23;235980;1190;24068;-75
2021/11/02 02:21:23;;;;;;;14.50;9.20;;;;;;;11.16;64.10;97291.14;236151;1174;24149;-72
2021/11/02 02:26:50;;;;;;;12.20;8.90;;;;;;;11.14;64.66;97281.20;236238;1191;22552;-74
2021/11/02 02:31:57;;;;;;;11.80;7.90;;;;;;;11.03;65.27;97280.91;236130;1197;25194;-72
2021/11/02 02:37:04;;;;;;;13.60;7.90;;;;;;;10.95;65.75;97280.98;236015;1197;22470;-72
2021/11/02 02:42:09;;;;;;;14.30;9.10;;;;;;;10.88;66.26;97278.35;236218;1198;23191;-73
2021/11/02 02:47:33;;;;;;;14.80;10.50;;;;;;;10.79;66.81;97273.46;235994;1193;22428;-73
2021/11/02 02:52:39;;;;;;;15.70;9.90;;;;;;;10.74;67.23;97272.42;236080;1197;22472;-74
2021/11/02 02:57:44;;;;;;;12.90;8.70;;;;;;;10.72;67.60;97266.89;235833;1197;25205;-74
2021/11/02 03:02:52;;;;;;;15.70;11.50;;;;;;;10.71;68.09;97263.88;235929;1197;24072;-75
2021/11/02 03:07:56;;;;;;;14.90;11.10;;;;;;;10.67;68.39;97259.52;235951;1197;24197;-74
2021/11/02 03:13:07;;;;;;;15.30;11.20;;;;;;;10.62;68.74;97253.59;236206;1190;24087;-72
2021/11/02 03:18:48;;;;;;;20.40;13.80;;;;;;;10.55;68.86;97253.96;235964;1174;22441;-73
2021/11/02 04:01:55;;;;;;;21.10;14.10;;;;;;;9.99;71.82;97225.86;236111;1182;22605;-76
2021/11/02 06:32:45;;;;;;;22.20;14.70;;;;;;;9.80;78.69;97225.35;236010;1198;23096;-76
2021/11/02 06:43:55;;;;;;;23.20;15.70;;;;;;;9.97;79.06;97237.34;235876;1192;22417;-72
2021/11/02 07:21:41;;;;;;;;;;;;;;;10.21;78.61;97257.23;236487;1196;22421;-76
2021/11/02 07:27:03;;;;;;;24.10;16.00;;;;;;;10.20;78.95;97257.80;236412;1190;24216;-76
2021/11/02 08:49:06;;;;;;;27.00;17.90;;;;;;;9.85;80.81;97256.73;236360;1193;22460;-76
2021/11/02 08:54:09;;;;;;;27.90;18.50;;;;;;;9.93;80.80;97259.10;236311;1190;24113;-77
2021/11/02 08:59:19;;;;;;;28.50;19.20;;;;;;;10.00;80.90;97253.74;236373;1197;22443;-75
2021/11/02 09:04:45;;;;;;;28.20;17.30;;;;;;;9.99;80.71;97251.33;236326;1190;22425;-77
2021/11/02 09:09:50;;;;;;;28.40;18.60;;;;;;;9.98;80.68;97248.06;236122;1190;24206;-74
2021/11/02 09:14:54;;;;;;;31.20;19.80;;;;;;;10.06;81.30;97250.61;236170;1196;25095;-74
2021/11/02 09:20:00;;;;;;;28.90;20.10;;;;;;;10.12;81.11;97250.99;236552;1190;24079;-72
2021/11/02 09:25:04;;;;;;;29.10;19.20;;;;;;;10.14;80.93;97255.48;236485;1197;25006;-72
2021/11/02 09:30:09;;;;;;;24.70;17.90;;;;;;;10.14;80.79;97256.11;236547;1190;24048;-72
2021/11/02 09:35:15;;;;;;;29.20;19.60;;;;;;;10.05;80.82;97249.17;236413;1174;24922;-72
2021/11/02 09:40:29;;;;;;;30.70;20.80;;;;;;;10.05;81.07;97250.52;236671;1190;22416;-74
2021/11/02 09:45:44;;;;;;;31.10;21.60;;;;;;;10.01;80.90;97254.68;236311;1190;25006;-75
2021/11/02 09:51:27;;;;;;;31.00;20.20;;;;;;;10.09;81.35;97253.09;236406;1197;24026;-75
2021/11/02 09:57:09;;;;;;;31.40;20.80;;;;;;;10.14;81.30;97249.52;236904;1196;24135;-75
2021/11/02 10:02:29;;;;;;;32.70;22.00;;;;;;;10.07;81.08;97248.42;236300;1197;24080;-75
2021/11/02 10:07:36;;;;;;;31.80;22.90;;;;;;;9.97;80.98;97248.33;236421;1197;22468;-74
2021/11/02 10:13:13;;;;;;;31.50;22.10;;;;;;;9.89;81.23;97243.98;236377;1197;22436;-75
2021/11/02 10:18:27;;;;;;;22.00;15.70;;;;;;;9.85;81.26;97241.07;236952;1196;22415;-74
2021/11/02 10:24:07;;;;;;;17.00;12.50;;;;;;;9.79;81.64;97241.34;236524;1190;24072;-73
2021/11/02 10:29:32;;;;;;;14.50;10.40;;;;;;;9.74;81.57;97241.95;236429;1193;22437;-78
2021/11/02 10:34:44;;;;;;;17.00;12.20;;;;;;;9.70;81.55;97236.56;236446;1190;22553;-76
2021/11/02 10:39:57;;;;;;;17.20;13.30;;;;;;;9.64;81.63;97233.88;236489;1196;22574;-76
2021/11/02 10:45:01;;;;;;;15.50;11.30;;;;;;;9.60;81.74;97232.34;236707;1197;22436;-76
2021/11/02 10:50:27;;;;;;;13.30;9.70;;;;;;;9.55;81.81;97229.40;236372;1190;24092;-74
2021/11/02 10:55:49;;;;;;;13.30;10.30;;;;;;;9.48;82.10;97222.85;236481;1196;24031;-72
2021/11/02 11:00:53;;;;;;;13.80;9.40;;;;;;;9.43;82.33;97219.50;236635;1190;22443;-74
2021/11/02 11:06:08;;;;;;;11.10;8.00;;;;;;;9.34;82.10;97223.41;236132;1197;24104;-73
2021/11/02 11:11:38;;;;;;;13.80;10.40;;;;;;;9.24;82.03;97225.45;236245;1190;22558;-74
2021/11/02 11:16:45;;;;;;;;;;;;;;;9.17;82.13;97221.38;236466;1197;22622;-74
2021/11/02 11:21:50;;;;;;;11.30;8.30;;;;;;;9.20;82.42;97222.73;236166;1197;22621;-73
2021/11/02 11:26:55;;;;;;;10.80;7.80;;;;;;;9.23;82.57;97230.14;236101;1197;22478;-73
2021/11/02 11:32:00;;;;;;;12.40;8.80;;;;;;;9.24;82.24;97227.88;236478;1193;25453;-74
2021/11/02 11:37:06;;;;;;;8.10;6.80;;;;;;;9.23;82.25;97228.85;236287;1190;25141;-74
2021/11/02 11:42:18;;;;;;;15.30;11.20;;;;;;;9.16;82.21;97229.45;236440;1196;23698;-77
2021/11/02 11:47:25;;;;;;;14.00;9.50;;;;;;;9.07;82.36;97220.38;236461;1190;22838;-76
2021/11/02 11:52:43;;;;;;;31.70;22.00;;;;;;;9.05;82.61;97224.46;236395;1192;24650;-77
2021/11/02 11:58:29;;;;;;;18.80;13.40;;;;;;;9.11;82.92;97224.80;236253;1193;24560;-76
2021/11/02 12:04:04;;;;;;;12.50;9.10;;;;;;;9.27;82.68;97222.11;236380;1190;22420;-76
2021/11/02 12:09:36;;;;;;;12.40;9.70;;;;;;;9.33;82.60;97222.45;236439;1197;22431;-77
2021/11/02 12:14:48;;;;;;;12.20;8.90;;;;;;;9.34;82.25;97233.18;236478;1190;25195;-77
2021/11/02 12:20:05;;;;;;;12.40;8.10;;;;;;;9.39;82.20;97235.22;236346;1190;25054;-77
2021/11/02 12:25:11;;;;;;;11.10;8.00;;;;;;;9.46;82.00;97232.88;236380;1190;22425;-75
2021/11/02 12:30:21;;;;;;;12.10;9.20;;;;;;;9.49;81.75;97227.25;236277;1197;23987;-76
2021/11/02 12:35:42;;;;;;;9.50;8.00;;;;;;;9.52;81.91;97225.73;236460;1174;24117;-77
2021/11/02 12:40:47;;;;;;;11.60;8.80;;;;;;;9.52;81.63;97227.05;236244;1197;25146;-74
2021/11/02 12:45:57;;;;;;;11.80;8.20;;;;;;;9.49;81.50;97224.80;236335;1197;25141;-73
2021/11/02 12:51:03;;;;;;;12.00;8.00;;;;;;;9.45;81.38;97224.94;236534;1197;22548;-75
2021/11/02 12:56:18;;;;;;;11.20;8.20;;;;;;;9.45;81.44;97234.62;236237;1197;22472;-75
2021/11/02 13:01:35;;;;;;;14.80;9.50;;;;;;;9.41;81.35;97234.54;236236;1192;22434;-74
2021/11/02 13:06:50;;;;;;;9.70;7.10;;;;;;;9.36;81.32;97231.80;236599;1190;24174;-75
2021/11/02 13:12:06;;;;;;;9.80;7.30;;;;;;;9.35;81.46;97230.40;237166;1184;24040;-74
2021/11/02 13:17:12;;;;;;;11.50;8.20;;;;;;;9.36;81.30;97230.42;236368;1184;24085;-76
2021/11/02 13:22:21;;;;;;;10.40;7.30;;;;;;;9.38;81.46;97228.43;236528;1197;22475;-75
2021/11/02 13:27:38;;;;;;;11.50;7.80;;;;;;;9.44;81.55;97227.10;236636;1198;24082;-76
2021/11/02 13:33:01;;;;;;;11.00;7.50;;;;;;;9.44;81.47;97233.30;236260;1197;22447;-75
2021/11/02 13:38:20;;;;;;;9.50;7.10;;;;;;;9.42;81.49;97230.77;236299;1197;22434;-74
2021/11/02 13:43:25;;;;;;;11.90;7.00;;;;;;;9.40;81.32;97238.02;236160;1198;25144;-73
2021/11/02 13:48:32;;;;;;;10.80;7.60;;;;;;;9.38;81.36;97238.85;236227;1184;24047;-74
2021/11/02 13:53:38;;;;;;;10.40;7.50;;;;;;;9.37;81.49;97239.73;236652;1191;25051;-75
2021/11/02 13:58:42;;;;;;;12.20;6.90;;;;;;;9.33;81.46;97249.04;236440;1183;22439;-73
2021/11/02 14:04:24;;;;;;;13.70;10.20;;;;;;;9.31;81.50;97252.27;236230;1197;23091;-78
2021/11/02 14:09:34;;;;;;;9.30;6.60;;;;;;;9.32;81.57;97248.98;236310;1190;24199;-73
2021/11/02 14:14:38;;;;;;;10.50;6.80;;;;;;;9.35;81.64;97248.64;236279;1193;22422;-76
2021/11/02 14:19:43;;;;;;;7.80;6.00;;;;;;;9.39;81.69;97249.19;236135;1190;24085;-76
2021/11/02 14:24:46;;;;;;;7.90;5.70;;;;;;;9.44;81.63;97240.84;235932;1198;22435;-75
2021/11/02 14:29:56;;;;;;;7.00;5.80;;;;;;;9.49;81.55;97236.84;236187;1197;22447;-74
2021/11/02 14:35:12;;;;;;;9.20;7.80;;;;;;;9.53;81.34;97239.53;236346;1190;22505;-78
2021/11/02 14:40:30;;;;;;;12.20;8.30;;;;;;;9.55;81.30;97241.92;236351;1190;24037;-75
2021/11/02 14:45:36;;;;;;;7.70;6.20;;;;;;;9.63;81.15;97243.31;235475;1190;29999;-72
2021/11/02 14:50:48;;;;;;;6.20;4.70;;;;;;;9.66;80.97;97251.66;236037;1193;22480;-75
2021/11/02 14:55:56;;;;;;;5.00;3.80;;;;;;;9.63;80.62;97255.14;236122;1196;22920;-72
2021/11/02 15:00:59;;;;;;;4.60;3.60;;;;;;;9.52;79.74;97264.33;236027;1193;24145;-75
2021/11/02 15:06:11;;;;;;;5.40;3.70;;;;;;;9.26;79.28;97264.30;235827;1193;22463;-76
2021/11/02 15:11:16;;;;;;;5.60;4.40;;;;;;;9.08;79.30;97265.55;236053;1198;24081;-76
2021/11/02 15:16:22;;;;;;;5.80;4.40;;;;;;;8.96;79.55;97268.81;235915;1197;22426;-75
2021/11/02 15:21:34;;;;;;;13.40;9.60;;;;;;;8.90;79.71;97265.79;235751;1199;22442;-73
2021/11/02 15:26:57;;;;;;;7.50;5.70;;;;;;;8.88;79.96;97266.92;235607;1193;24049;-75
2021/11/02 15:32:07;;;;;;;9.20;6.60;;;;;;;8.86;80.02;97272.16;235714;1193;25013;-75
2021/11/02 15:37:17;;;;;;;8.50;5.10;;;;;;;8.85;80.10;97269.67;235835;1199;22482;-77
2021/11/02 15:42:24;;;;;;;7.80;5.60;;;;;;;8.80;80.02;97267.04;235644;1193;24085;-75
2021/11/02 15:47:29;;;;;;;9.40;6.60;;;;;;;8.78;80.00;97271.65;235644;1193;24085;-75
2021/11/02 15:52:33;;;;;;;11.90;8.10;;;;;;;8.73;80.07;97271.89;235535;1193;22975;-75
2021/11/02 15:57:47;;;;;;;12.00;8.30;;;;;;;8.66;79.98;97271.05;235646;1199;25318;-77
2021/11/02 16:02:58;;;;;;;13.80;9.90;;;;;;;8.61;80.17;97282.26;235555;1199;24053;-75
2021/11/02 16:08:23;;;;;;;15.40;10.40;;;;;;;8.63;80.66;97290.23;235959;1193;23203;-74
2021/11/02 16:13:27;;;;;;;18.50;13.00;;;;;;;8.70;80.94;97296.71;235874;1199;24616;-75
2021/11/02 16:18:33;;;;;;;20.20;12.50;;;;;;;8.75;80.72;97310.81;235233;1199;22546;-75
2021/11/02 16:23:47;;;;;;;21.30;14.20;;;;;;;8.70;80.47;97316.61;235725;1199;22422;-75
2021/11/02 16:28:51;;;;;;;17.60;11.90;;;;;;;8.66;80.49;97318.56;236138;1199;26148;-74
2021/11/02 16:33:54;;;;;;;15.80;10.30;;;;;;;8.59;80.57;97320.46;235459;1199;22417;-73
2021/11/02 16:38:58;;;;;;;11.80;8.60;;;;;;;8.55;80.56;97335.45;235469;1194;22434;-75
2021/11/02 16:44:05;;;;;;;12.60;8.50;;;;;;;8.44;80.54;97337.40;235095;1193;24028;-75
2021/11/02 16:49:26;;;;;;;11.50;8.00;;;;;;;8.36;80.66;97341.19;235848;1199;22511;-76
2021/11/02 16:54:33;;;;;;;10.00;7.10;;;;;;;8.28;80.49;97340.80;235260;1200;22853;-75
2021/11/02 16:59:38;;;;;;;13.50;8.90;;;;;;;8.22;80.84;97343.52;235604;1196;26248;-75
2021/11/02 17:04:59;;;;;;;13.00;9.90;;;;;;;8.18;80.94;97346.63;235703;1196;22484;-73
2021/11/02 17:10:27;;;;;;;22.20;11.90;;;;;;;8.14;81.03;97351.27;235346;1193;22582;-75
2021/11/02 17:15:34;;;;;;;17.40;10.90;;;;;;;8.08;81.24;97358.35;235255;1187;22517;-74
2021/11/02 17:20:37;;;;;;;18.30;11.30;;;;;;;8.02;81.32;97356.33;235702;1199;24056;-74
2021/11/02 17:25:45;;;;;;;21.80;12.30;;;;;;;7.98;81.52;97357.11;235067;1200;22443;-73
2021/11/02 17:30:48;;;;;;;16.20;11.00;;;;;;;7.93;81.66;97359.77;235278;1187;24088;-73
2021/11/02 17:35:56;;;;;;;18.50;12.60;;;;;;;7.92;81.72;97369.54;235512;1193;24089;-75
2021/11/02 17:41:03;;;;;;;23.00;15.00;;;;;;;7.89;82.00;97371.90;235444;1199;24824;-75
2021/11/02 17:46:07;;;;;;;27.50;16.30;;;;;;;7.86;82.14;97374.20;235080;1200;24088;-77
2021/11/02 17:51:10;;;;;;;29.30;17.20;;;;;;;7.87;82.38;97382.23;235667;1193;24088;-73
2021/11/02 17:56:14;;;;;;;28.90;17.50;;;;;;;7.85;82.31;97380.89;235144;1200;22478;-77
2021/11/02 18:01:17;;;;;;;29.00;17.20;;;;;;;7.86;82.57;97377.50;235143;1200;22550;-76
2021/11/02 18:06:22;;;;;;;26.80;16.30;;;;;;;7.86;82.76;97380.54;235204;1200;22436;-75
2021/11/02 18:11:25;;;;;;;26.60;15.50;;;;;;;7.88;82.74;97385.41;234954;1193;22431;-74
2021/11/02 18:16:31;;;;;;;24.60;15.90;;;;;;;7.87;82.81;97386.13;235093;1200;24118;-77
2021/11/02 18:21:50;;;;;;;28.80;17.40;;;;;;;7.83;82.83;97390.52;235329;1195;22589;-76
2021/11/02 18:26:57;;;;;;;30.10;19.20;;;;;;;7.82;82.94;97395.15;235722;1197;24014;-76
2021/11/02 18:32:01;;;;;;;37.20;22.90;;;;;;;7.82;82.96;97398.83;235048;1201;24117;-76
2021/11/02 18:37:04;;;;;;;35.80;21.70;;;;;;;7.80;83.10;97404.91;235275;1199;22456;-75
2021/11/02 18:42:07;;;;;;;36.80;22.80;;;;;;;7.79;83.09;97405.84;235855;1199;24222;-75
2021/11/02 18:47:15;;;;;;;41.10;22.90;;;;;;;7.79;83.17;97406.69;235997;1199;25600;-74
2021/11/02 18:52:18;;;;;;;43.80;24.60;;;;;;;7.80;83.27;97406.88;235664;1192;22455;-74
2021/11/02 18:57:33;;;;;;;46.20;28.20;;;;;;;7.79;83.30;97402.27;235737;1184;24212;-75
2021/11/02 19:02:37;;;;;;;46.00;26.80;;;;;;;7.74;83.46;97406.44;235630;1198;24211;-74
2021/11/02 19:07:40;;;;;;;46.70;28.90;;;;;;;7.68;83.56;97406.26;235454;1199;24014;-76
2021/11/02 19:12:43;;;;;;;54.60;30.20;;;;;;;7.66;83.54;97410.89;235652;1199;24037;-78
2021/11/02 19:17:46;;;;;;;51.80;30.30;;;;;;;7.62;83.75;97412.61;234986;1200;25193;-73
2021/11/02 19:23:02;;;;;;;51.30;29.90;;;;;;;7.58;83.88;97423.81;235463;1199;22642;-74
2021/11/02 19:28:09;;;;;;;49.30;31.80;;;;;;;7.53;84.10;97434.45;235300;1199;24143;-74
2021/11/02 19:33:12;;;;;;;57.50;32.30;;;;;;;7.51;84.21;97439.16;236017;1176;24146;-76
2021/11/02 19:38:15;;;;;;;55.70;32.60;;;;;;;7.51;84.24;97442.25;235576;1193;22632;-76
2021/11/02 19:43:18;;;;;;;56.60;33.10;;;;;;;7.51;84.41;97446.39;235600;1199;24509;-75
2021/11/02 19:48:21;;;;;;;56.60;31.60;;;;;;;7.51;84.41;97445.33;235322;1199;22448;-75
2021/11/02 19:53:30;;;;;;;51.00;29.70;;;;;;;7.48;84.47;97440.75;235541;1184;22466;-76
2021/11/02 19:58:32;;;;;;;45.20;26.40;;;;;;;7.46;84.49;97445.06;235693;1193;22566;-72
2021/11/02 20:03:49;;;;;;;44.50;26.80;;;;;;;7.48;84.49;97451.31;235138;1192;25210;-77
2021/11/02 20:09:07;;;;;;;43.20;26.90;;;;;;;7.52;84.40;97454.64;235931;1199;22431;-77
2021/11/02 20:14:24;;;;;;;40.70;24.60;;;;;;;7.52;84.21;97453.27;235125;1193;25332;-75
2021/11/02 20:19:33;;;;;;;43.50;25.90;;;;;;;7.51;84.17;97457.86;235060;1192;22462;-73
2021/11/02 20:24:40;;;;;;;38.20;23.50;;;;;;;7.50;84.16;97452.40;235235;1200;25543;-73
2021/11/02 20:29:43;;;;;;;39.70;24.40;;;;;;;7.49;84.20;97457.30;235194;1176;24054;-75
2021/11/02 20:34:47;;;;;;;38.70;23.30;;;;;;;7.47;84.28;97470.19;235079;1200;24038;-73
2021/11/02 20:40:06;;;;;;;36.10;23.10;;;;;;;7.46;84.45;97476.25;235756;1199;23999;-73
2021/11/02 20:45:09;;;;;;;39.20;22.70;;;;;;;7.44;84.25;97476.39;235621;1193;22428;-72
2021/11/02 20:50:13;;;;;;;38.90;22.40;;;;;;;7.43;84.32;97478.44;235457;1199;22537;-75
2021/11/02 20:55:18;;;;;;;38.20;22.40;;;;;;;7.45;84.39;97480.22;235751;1199;25010;-75
2021/11/02 21:00:22;;;;;;;36.30;22.00;;;;;;;7.48;84.43;97484.73;235576;1199;24111;-76
2021/11/02 21:05:27;;;;;;;34.00;19.30;;;;;;;7.46;84.32;97488.39;235898;1184;22436;-76
2021/11/02 21:10:33;;;;;;;37.50;21.80;;;;;;;7.45;84.47;97491.88;235360;1199;25236;-74
2021/11/02 21:15:48;;;;;;;37.40;21.00;;;;;;;7.44;84.23;97494.99;235805;1193;23969;-73
2021/11/02 21:20:51;;;;;;;34.40;19.20;;;;;;;7.43;84.30;97490.38;235744;1199;25715;-75
2021/11/02 21:25:56;;;;;;;33.10;21.20;;;;;;;7.43;84.21;97497.87;235655;1193;22458;-75
2021/11/02 21:31:00;;;;;;;30.50;18.90;;;;;;;7.44;84.33;97496.52;235152;1200;22435;-74
2021/11/02 21:36:03;;;;;;;32.50;20.20;;;;;;;7.45;84.30;97505.52;235309;1193;22410;-74
2021/11/02 21:41:33;;;;;;;33.50;19.00;;;;;;;7.44;84.34;97510.27;235430;1199;24060;-75
2021/11/02 21:46:48;;;;;;;32.20;19.70;;;;;;;7.45;84.09;97506.79;235512;1199;25115;-74
2021/11/02 21:51:55;;;;;;;34.80;20.30;;;;;;;7.44;83.97;97508.14;235061;1199;25374;-76
2021/11/02 21:57:06;;;;;;;35.50;20.60;;;;;;;7.38;83.97;97505.13;235368;1193;22567;-75
2021/11/02 22:02:19;;;;;;;30.90;19.20;;;;;;;7.30;83.62;97510.94;235840;1199;22497;-74
2021/11/02 22:07:23;;;;;;;30.60;17.90;;;;;;;7.14;83.42;97509.98;235391;1199;24057;-74
2021/11/02 22:12:26;;;;;;;36.20;20.30;;;;;;;6.95;83.40;97507.40;235909;1198;22412;-75
2021/11/02 22:17:29;;;;;;;37.70;20.60;;;;;;;6.81;83.54;97507.62;235175;1200;22581;-73
2021/11/02 22:22:32;;;;;;;37.30;22.20;;;;;;;6.58;83.43;97515.41;235598;1199;24040;-75
2021/11/02 22:27:40;;;;;;;42.40;23.20;;;;;;;6.38;83.59;97519.37;234989;1193;24065;-75
2021/11/02 22:32:44;;;;;;;46.10;25.20;;;;;;;6.23;84.02;97527.48;235694;1199;22988;-75
2021/11/02 22:37:46;;;;;;;43.70;24.00;;;;;;;6.10;84.10;97529.75;235209;1200;22458;-73
2021/11/02 22:43:09;;;;;;;44.70;24.80;;;;;;;5.98;84.36;97533.42;234957;1200;26432;-73
2021/11/02 22:48:20;;;;;;;46.10;25.80;;;;;;;5.86;84.78;97542.66;235223;1199;25387;-73
2021/11/02 22:53:33;;;;;;;40.20;23.30;;;;;;;5.74;84.92;97546.77;235447;1193;24005;-75
2021/11/02 22:58:36;;;;;;;41.50;23.60;;;;;;;5.65;85.04;97537.48;235528;1199;22458;-76
2021/11/02 23:03:39;;;;;;;37.70;23.30;;;;;;;5.58;85.15;97549.63;235667;1199;22419;-76
2021/11/02 23:08:41;;;;;;;44.40;26.10;;;;;;;5.49;85.03;97550.95;235787;1193;25946;-75
2021/11/02 23:13:43;;;;;;;38.70;22.00;;;;;;;5.42;85.09;97546.69;235222;1192;24104;-76
2021/11/02 23:18:48;;;;;;;45.20;23.50;;;;;;;5.32;85.33;97551.21;235081;1200;24175;-75
2021/11/02 23:23:59;;;;;;;38.40;24.40;;;;;;;5.22;85.50;97550.38;235558;1199;22477;-74
2021/11/02 23:29:05;;;;;;;41.50;23.80;;;;;;;5.13;85.25;97553.05;235516;1199;22508;-73
2021/11/02 23:34:08;;;;;;;38.30;21.60;;;;;;;5.07;85.53;97554.20;235351;1199;22416;-76
2021/11/02 23:39:11;;;;;;;38.00;21.40;;;;;;;5.04;85.59;97559.11;235218;1200;25725;-75
2021/11/02 23:44:16;;;;;;;35.00;19.50;;;;;;;5.01;85.59;97566.42;235700;1199;24185;-75
2021/11/02 23:49:20;;;;;;;36.60;18.60;;;;;;;4.96;85.82;97574.05;235161;1200;22438;-75
2021/11/02 23:54:23;;;;;;;28.60;16.70;;;;;;;4.90;85.74;97577.25;235138;1193;24251;-75
2021/11/02 23:59:25;;;;;;;28.20;16.30;;;;;;;4.85;86.14;97583.30;235859;1199;24072;-74
